Time,TemperatureF,DewpointF,PressureIn,WindDirection,WindDirectionDegrees,WindSpeedMPH,WindSpeedGustMPH,Humidity,HourlyPrecipIn,Conditions,Clouds,dailyrainin,SolarRadiationWatts/m^2,SoftwareType,DateUTC
2013-05-11 00:12:00,53.0,31.0,-100.00,NNE,18,0.0,4.0,43,0.00,,,0.00,0.000000,,2013-05-11 06:12:00,
2013-05-11 00:42:00,53.0,31.0,-100.00,NNE,18,0.0,4.0,43,0.00,,,0.00,0.000000,,2013-05-11 06:42:00,
2013-05-11 01:11:00,52.0,30.0,-100.00,ENE,76,2.0,6.0,42,0.00,,,0.00,0.000000,,2013-05-11 07:11:00,
2013-05-11 01:21:00,52.0,30.0,-100.00,ENE,76,2.0,6.0,42,0.00,,,0.00,0.000000,,2013-05-11 07:21:00,
2013-05-11 01:32:00,52.0,30.0,-100.00,ENE,76,2.0,6.0,42,0.00,,,0.00,0.000000,,2013-05-11 07:32:00,
2013-05-11 02:42:00,50.0,31.0,-100.00,NE,48,2.0,7.0,48,-99.99,,,0.00,0.000000,,2013-05-11 08:42:00,
2013-05-11 02:51:00,48.0,29.0,-100.00,ESE,104,4.0,8.0,47,0.00,,,0.00,0.000000,,2013-05-11 08:51:00,
2013-05-11 03:21:00,48.0,29.0,-100.00,ESE,104,4.0,8.0,47,0.00,,,0.00,0.000000,,2013-05-11 09:21:00,
2013-05-11 03:32:00,48.0,29.0,-100.00,ESE,104,4.0,8.0,47,0.00,,,0.00,0.000000,,2013-05-11 09:32:00,
2013-05-11 03:42:00,48.0,29.0,-100.00,ESE,104,4.0,8.0,47,0.00,,,0.00,0.000000,,2013-05-11 09:42:00,
2013-05-11 03:51:00,46.0,29.0,-100.00,NE,51,2.0,6.0,52,0.00,,,0.00,0.000000,,2013-05-11 09:51:00,
2013-05-11 04:22:00,46.0,29.0,-100.00,NE,51,2.0,6.0,52,0.00,,,0.00,0.000000,,2013-05-11 10:22:00,
2013-05-11 04:33:00,46.0,29.0,-100.00,NE,51,2.0,6.0,52,0.00,,,0.00,0.000000,,2013-05-11 10:33:00,
2013-05-11 04:42:00,46.0,29.0,-100.00,NE,51,2.0,6.0,52,0.00,,,0.00,0.000000,,2013-05-11 10:42:00,
2013-05-11 04:51:00,44.0,30.0,-100.00,East,101,4.0,7.0,58,-99.99,,,0.00,0.000000,,2013-05-11 10:51:00,
2013-05-11 05:11:00,44.0,30.0,-100.00,East,101,4.0,7.0,58,-99.99,,,0.00,0.000000,,2013-05-11 11:11:00,
2013-05-11 05:21:00,44.0,30.0,-100.00,East,101,4.0,7.0,58,-99.99,,,0.00,0.000000,,2013-05-11 11:21:00,
2013-05-11 05:32:00,44.0,30.0,-100.00,East,101,4.0,7.0,58,-99.99,,,0.00,0.000000,,2013-05-11 11:32:00,
2013-05-11 05:42:00,44.0,30.0,-100.00,East,101,4.0,7.0,58,-99.99,,,0.00,0.000000,,2013-05-11 11:42:00,
2013-05-11 06:21:00,45.0,30.0,-100.00,East,83,5.0,10.0,55,0.00,,,-99.99,0.000000,,2013-05-11 12:21:00,
2013-05-11 06:32:00,45.0,30.0,-100.00,East,83,5.0,10.0,55,0.00,,,-99.99,0.000000,,2013-05-11 12:32:00,
2013-05-11 07:51:00,50.0,32.0,-100.00,East,82,2.0,10.0,49,0.00,,,0.00,260.000000,,2013-05-11 13:51:00,
2013-05-11 08:21:00,50.0,32.0,-100.00,East,82,2.0,10.0,49,0.00,,,0.00,260.000000,,2013-05-11 14:21:00,
2013-05-11 08:32:00,50.0,32.0,-100.00,East,82,2.0,10.0,49,0.00,,,0.00,260.000000,,2013-05-11 14:32:00,
2013-05-11 08:41:00,50.0,32.0,-100.00,East,82,2.0,10.0,49,0.00,,,0.00,260.000000,,2013-05-11 14:41:00,
2013-05-11 08:51:00,52.0,33.0,-100.00,ENE,63,3.0,7.0,48,0.00,,,0.00,502.000000,,2013-05-11 14:51:00,
2013-05-11 09:11:00,52.0,33.0,-100.00,ENE,63,3.0,7.0,48,0.00,,,0.00,502.000000,,2013-05-11 15:11:00,
2013-05-11 09:21:00,52.0,33.0,-100.00,ENE,63,3.0,7.0,48,0.00,,,0.00,502.000000,,2013-05-11 15:21:00,
2013-05-11 09:32:00,52.0,33.0,-100.00,ENE,63,3.0,7.0,48,0.00,,,0.00,502.000000,,2013-05-11 15:32:00,
2013-05-11 09:42:00,52.0,33.0,-100.00,ENE,63,3.0,7.0,48,0.00,,,0.00,502.000000,,2013-05-11 15:42:00,
2013-05-11 09:51:00,56.0,34.0,-100.00,ENE,75,4.0,9.0,43,0.00,,,0.00,737.000000,,2013-05-11 15:51:00,
2013-05-11 10:22:00,56.0,34.0,-100.00,ENE,75,4.0,9.0,43,0.00,,,0.00,737.000000,,2013-05-11 16:22:00,
2013-05-11 10:33:00,56.0,34.0,-100.00,ENE,75,4.0,9.0,43,0.00,,,0.00,737.000000,,2013-05-11 16:33:00,
2013-05-11 10:42:00,56.0,34.0,-100.00,ENE,75,4.0,9.0,43,0.00,,,0.00,737.000000,,2013-05-11 16:42:00,
2013-05-11 10:51:00,61.0,35.0,-100.00,NNW,327,3.0,7.0,37,0.00,,,0.00,918.000000,,2013-05-11 16:51:00,
2013-05-11 11:12:00,61.0,35.0,-100.00,NNW,327,3.0,7.0,37,0.00,,,0.00,918.000000,,2013-05-11 17:12:00,
2013-05-11 11:22:00,61.0,35.0,-100.00,NNW,327,3.0,7.0,37,0.00,,,0.00,918.000000,,2013-05-11 17:22:00,
2013-05-11 11:31:00,61.0,35.0,-100.00,NNW,327,3.0,7.0,37,0.00,,,0.00,918.000000,,2013-05-11 17:31:00,
2013-05-11 11:41:00,61.0,35.0,-100.00,NNW,327,3.0,7.0,37,0.00,,,0.00,918.000000,,2013-05-11 17:41:00,
2013-05-11 11:51:00,66.0,34.0,-100.00,WNW,300,1.0,9.0,30,0.00,,,0.00,1048.000000,,2013-05-11 17:51:00,
2013-05-11 12:21:00,66.0,34.0,-100.00,WNW,300,1.0,9.0,30,0.00,,,0.00,1048.000000,,2013-05-11 18:21:00,
2013-05-11 12:32:00,66.0,34.0,-100.00,WNW,300,1.0,9.0,30,0.00,,,0.00,1048.000000,,2013-05-11 18:32:00,
2013-05-11 12:41:00,66.0,34.0,-100.00,WNW,300,1.0,9.0,30,0.00,,,0.00,1048.000000,,2013-05-11 18:41:00,
2013-05-11 12:51:00,67.0,30.0,-100.00,NW,306,8.0,12.0,25,0.00,,,0.00,1140.000000,,2013-05-11 18:51:00,
2013-05-11 13:11:00,67.0,30.0,-100.00,NW,306,8.0,12.0,25,0.00,,,0.00,1140.000000,,2013-05-11 19:11:00,
2013-05-11 13:21:00,67.0,30.0,-100.00,NW,306,8.0,12.0,25,0.00,,,0.00,1140.000000,,2013-05-11 19:21:00,
2013-05-11 13:32:00,67.0,30.0,-100.00,NW,306,8.0,12.0,25,0.00,,,0.00,1140.000000,,2013-05-11 19:32:00,
2013-05-11 13:41:00,67.0,30.0,-100.00,NW,306,8.0,12.0,25,0.00,,,0.00,1140.000000,,2013-05-11 19:41:00,
2013-05-11 13:51:00,67.0,27.0,-100.00,WNW,291,7.0,15.0,22,0.00,,,0.00,988.000000,,2013-05-11 19:51:00,
2013-05-11 14:22:00,67.0,27.0,-100.00,WNW,291,7.0,15.0,22,0.00,,,0.00,988.000000,,2013-05-11 20:22:00,
2013-05-11 14:32:00,67.0,27.0,-100.00,WNW,291,7.0,15.0,22,0.00,,,0.00,988.000000,,2013-05-11 20:32:00,
2013-05-11 14:42:00,67.0,27.0,-100.00,WNW,291,7.0,15.0,22,0.00,,,0.00,988.000000,,2013-05-11 20:42:00,
2013-05-11 14:51:00,70.0,26.0,-100.00,NNE,13,5.0,17.0,19,0.00,,,0.00,1095.000000,,2013-05-11 20:51:00,
2013-05-11 15:11:00,70.0,26.0,-100.00,NNE,13,5.0,17.0,19,0.00,,,0.00,1095.000000,,2013-05-11 21:11:00,
2013-05-11 15:21:00,70.0,26.0,-100.00,NNE,13,5.0,17.0,19,0.00,,,0.00,1095.000000,,2013-05-11 21:21:00,
2013-05-11 15:33:00,70.0,26.0,-100.00,NNE,13,5.0,17.0,19,0.00,,,0.00,1095.000000,,2013-05-11 21:33:00,
2013-05-11 15:43:00,70.0,26.0,-100.00,NNE,13,5.0,17.0,19,0.00,,,0.00,1095.000000,,2013-05-11 21:43:00,
2013-05-11 15:51:00,70.0,28.0,-100.00,NW,305,4.0,13.0,21,0.00,,,0.00,977.000000,,2013-05-11 21:51:00,
2013-05-11 16:23:00,70.0,28.0,-100.00,NW,305,4.0,13.0,21,0.00,,,0.00,977.000000,,2013-05-11 22:23:00,
2013-05-11 16:33:00,70.0,28.0,-100.00,NW,305,4.0,13.0,21,0.00,,,0.00,977.000000,,2013-05-11 22:33:00,
2013-05-11 16:42:00,70.0,28.0,-100.00,NW,305,4.0,13.0,21,0.00,,,0.00,977.000000,,2013-05-11 22:42:00,
2013-05-11 16:51:00,69.0,29.0,-100.00,WSW,255,12.0,19.0,22,0.00,,,0.00,855.000000,,2013-05-11 22:51:00,
2013-05-11 17:22:00,69.0,29.0,-100.00,WSW,255,12.0,19.0,22,0.00,,,0.00,855.000000,,2013-05-11 23:22:00,
2013-05-11 17:32:00,69.0,29.0,-100.00,WSW,255,12.0,19.0,22,0.00,,,0.00,855.000000,,2013-05-11 23:32:00,
2013-05-11 17:42:00,69.0,29.0,-100.00,WSW,255,12.0,19.0,22,0.00,,,0.00,855.000000,,2013-05-11 23:42:00,
2013-05-11 17:51:00,66.0,29.0,-100.00,West,275,10.0,17.0,25,0.00,,,0.00,396.000000,,2013-05-11 23:51:00,
2013-05-11 18:21:00,66.0,29.0,-100.00,West,275,10.0,17.0,25,0.00,,,0.00,396.000000,,2013-05-12 00:21:00,
2013-05-11 18:32:00,66.0,29.0,-100.00,West,275,10.0,17.0,25,0.00,,,0.00,396.000000,,2013-05-12 00:32:00,
2013-05-11 18:42:00,66.0,29.0,-100.00,West,275,10.0,17.0,25,0.00,,,0.00,396.000000,,2013-05-12 00:42:00,
2013-05-11 18:51:00,64.0,30.0,-100.00,SW,216,14.0,27.0,28,0.00,,,0.00,225.000000,,2013-05-12 00:51:00,
2013-05-11 19:11:00,64.0,30.0,-100.00,SW,216,14.0,27.0,28,0.00,,,0.00,225.000000,,2013-05-12 01:11:00,
2013-05-11 19:21:00,64.0,30.0,-100.00,SW,216,14.0,27.0,28,0.00,,,0.00,225.000000,,2013-05-12 01:21:00,
2013-05-11 19:31:00,64.0,30.0,-100.00,SW,216,14.0,27.0,28,0.00,,,0.00,225.000000,,2013-05-12 01:31:00,
2013-05-11 19:41:00,64.0,30.0,-100.00,SW,216,14.0,27.0,28,0.00,,,0.00,225.000000,,2013-05-12 01:41:00,
2013-05-11 19:51:00,63.0,32.0,-100.00,West,269,2.0,19.0,31,0.00,,,0.00,131.000000,,2013-05-12 01:51:00,
2013-05-11 20:11:00,63.0,32.0,-100.00,West,269,2.0,19.0,31,0.00,,,0.00,131.000000,,2013-05-12 02:11:00,
2013-05-11 20:22:00,63.0,32.0,-100.00,West,269,2.0,19.0,31,0.00,,,0.00,131.000000,,2013-05-12 02:22:00,
2013-05-11 20:31:00,63.0,32.0,-100.00,West,269,2.0,19.0,31,0.00,,,0.00,131.000000,,2013-05-12 02:31:00,
2013-05-11 20:41:00,63.0,32.0,-100.00,West,269,2.0,19.0,31,0.00,,,0.00,131.000000,,2013-05-12 02:41:00,
2013-05-11 20:51:00,59.0,32.0,-100.00,WNW,292,4.0,5.0,36,0.00,,,0.00,7.000000,,2013-05-12 02:51:00,
2013-05-11 21:22:00,59.0,32.0,-100.00,WNW,292,4.0,5.0,36,0.00,,,0.00,7.000000,,2013-05-12 03:22:00,
2013-05-11 21:32:00,59.0,32.0,-100.00,WNW,292,4.0,5.0,36,0.00,,,0.00,7.000000,,2013-05-12 03:32:00,
2013-05-11 21:42:00,59.0,32.0,-100.00,WNW,292,4.0,5.0,36,0.00,,,0.00,7.000000,,2013-05-12 03:42:00,
2013-05-11 21:51:00,57.0,32.0,-100.00,WNW,288,0.0,4.0,39,0.00,,,0.00,0.000000,,2013-05-12 03:51:00,
2013-05-11 22:22:00,57.0,32.0,-100.00,WNW,288,0.0,4.0,39,0.00,,,0.00,0.000000,,2013-05-12 04:22:00,
2013-05-11 22:33:00,57.0,32.0,-100.00,WNW,288,0.0,4.0,39,0.00,,,0.00,0.000000,,2013-05-12 04:33:00,
2013-05-11 22:43:00,57.0,32.0,-100.00,WNW,288,0.0,4.0,39,0.00,,,0.00,0.000000,,2013-05-12 04:43:00,
2013-05-11 22:51:00,52.0,36.0,-100.00,West,259,6.0,7.0,54,0.00,,,0.00,0.000000,,2013-05-12 04:51:00,
2013-05-11 23:11:00,52.0,36.0,-100.00,West,259,6.0,7.0,54,0.00,,,0.00,0.000000,,2013-05-12 05:11:00,
2013-05-11 23:22:00,52.0,36.0,-100.00,West,259,6.0,7.0,54,0.00,,,0.00,0.000000,,2013-05-12 05:22:00,
2013-05-11 23:31:00,52.0,36.0,-100.00,West,259,6.0,7.0,54,0.00,,,0.00,0.000000,,2013-05-12 05:31:00,
2013-05-11 23:42:00,52.0,36.0,-100.00,West,259,6.0,7.0,54,0.00,,,0.00,0.000000,,2013-05-12 05:42:00,
2013-05-11 23:51:00,53.0,33.0,-100.00,West,269,7.0,10.0,46,0.00,,,-99.99,0.000000,,2013-05-12 05:51:00,